createdAt,value
2018-09-13T00:00:34.939Z,23.27
2018-09-13T00:01:34.734Z,23.27
2018-09-13T00:02:34.557Z,23.32
2018-09-13T00:03:34.373Z,23.25
2018-09-13T00:04:34.191Z,23.27
2018-09-13T00:05:34.036Z,23.22
2018-09-13T00:06:33.832Z,23.27
2018-09-13T00:07:33.649Z,23.22
2018-09-13T00:08:33.473Z,23.27
2018-09-13T00:09:33.296Z,23.20
2018-09-13T00:10:33.166Z,23.23
2018-09-13T00:11:32.963Z,23.19
2018-09-13T00:12:32.790Z,23.22
2018-09-13T00:13:32.619Z,23.07
2018-09-13T00:14:32.449Z,23.13
2018-09-13T00:15:32.276Z,23.10
2018-09-13T00:16:32.130Z,23.10
2018-09-13T00:17:31.928Z,23.02
2018-09-13T00:18:31.763Z,23.09
2018-09-13T00:19:31.586Z,22.95
2018-09-13T00:20:31.413Z,22.95
2018-09-13T00:21:31.270Z,22.91
2018-09-13T00:22:31.072Z,22.95
2018-09-13T00:23:30.903Z,22.92
2018-09-13T00:24:30.733Z,23.00
2018-09-13T00:25:30.565Z,23.04
2018-09-13T00:26:30.417Z,23.00
2018-09-13T00:27:30.221Z,22.91
2018-09-13T00:28:30.054Z,22.92
2018-09-13T00:29:29.890Z,22.86
2018-09-13T00:30:29.718Z,22.86
2018-09-13T00:31:29.579Z,22.82
2018-09-13T00:32:29.388Z,22.79
2018-09-13T00:33:29.222Z,22.80
2018-09-13T00:34:29.054Z,22.80
2018-09-13T00:35:28.889Z,22.79
2018-09-13T00:36:28.748Z,22.80
2018-09-13T00:37:28.553Z,22.70
2018-09-13T00:38:28.393Z,22.70
2018-09-13T00:39:28.227Z,22.72
2018-09-13T00:40:28.069Z,22.68
2018-09-13T00:41:27.992Z,22.70
2018-09-13T00:42:27.736Z,22.68
2018-09-13T00:43:27.570Z,22.72
2018-09-13T00:44:27.403Z,22.67
2018-09-13T00:45:27.245Z,22.70
2018-09-13T00:46:27.103Z,22.70
2018-09-13T00:47:26.905Z,22.58
2018-09-13T00:48:26.742Z,22.62
2018-09-13T00:49:26.574Z,22.60
2018-09-13T00:50:26.414Z,22.54
2018-09-13T00:51:26.282Z,22.62
2018-09-13T00:52:26.095Z,22.54
2018-09-13T00:53:25.933Z,22.55
2018-09-13T00:54:25.772Z,22.47
2018-09-13T00:55:25.602Z,22.51
2018-09-13T00:56:25.467Z,22.46
2018-09-13T00:57:25.275Z,22.55
2018-09-13T00:58:25.114Z,22.49
2018-09-13T00:59:24.950Z,22.51
2018-09-13T01:00:24.788Z,22.49
2018-09-13T01:01:24.656Z,22.43
2018-09-13T01:02:24.462Z,22.45
2018-09-13T01:03:24.300Z,22.47
2018-09-13T01:04:24.140Z,22.47
2018-09-13T01:05:23.977Z,22.47
2018-09-13T01:06:23.838Z,22.49
2018-09-13T01:07:23.647Z,22.45
2018-09-13T01:08:23.492Z,22.39
2018-09-13T01:09:23.321Z,22.40
2018-09-13T01:10:23.156Z,22.36
2018-09-13T01:11:23.032Z,22.47
2018-09-13T01:12:22.829Z,22.40
2018-09-13T01:13:22.660Z,22.40
2018-09-13T01:14:22.492Z,22.35
2018-09-13T01:15:22.331Z,22.40
2018-09-13T01:16:22.165Z,22.39
2018-09-13T01:17:22.025Z,22.35
2018-09-13T01:18:21.835Z,22.36
2018-09-13T01:19:21.664Z,22.22
2018-09-13T01:20:21.496Z,22.35
2018-09-13T01:21:21.329Z,22.31
2018-09-13T01:22:21.189Z,22.27
2018-09-13T01:23:21.003Z,22.24
2018-09-13T01:24:20.840Z,22.30
2018-09-13T01:25:20.674Z,22.28
2018-09-13T01:26:20.512Z,22.28
2018-09-13T01:27:20.374Z,22.25
2018-09-13T01:28:20.184Z,22.21
2018-09-13T01:29:20.016Z,22.15
2018-09-13T01:30:19.853Z,22.07
2018-09-13T01:31:19.693Z,22.09
2018-09-13T01:32:19.555Z,22.03
2018-09-13T01:33:19.364Z,22.00
2018-09-13T01:34:19.202Z,22.05
2018-09-13T01:35:19.035Z,22.07
2018-09-13T01:36:18.869Z,22.06
2018-09-13T01:37:18.736Z,22.06
2018-09-13T01:38:18.540Z,22.05
2018-09-13T01:39:18.377Z,22.03
2018-09-13T01:40:18.214Z,21.96
2018-09-13T01:41:18.052Z,21.94
2018-09-13T01:42:17.917Z,21.90
2018-09-13T01:43:17.728Z,21.82
2018-09-13T01:44:17.565Z,21.64
2018-09-13T01:45:17.404Z,21.62
2018-09-13T01:46:17.238Z,21.47
2018-09-13T01:47:17.110Z,21.47
2018-09-13T01:48:16.918Z,21.54
2018-09-13T01:49:16.751Z,21.47
2018-09-13T01:50:16.588Z,21.40
2018-09-13T01:51:16.435Z,21.47
2018-09-13T01:52:16.301Z,21.38
2018-09-13T01:53:16.115Z,21.42
2018-09-13T01:54:15.955Z,21.35
2018-09-13T01:55:15.798Z,21.28
2018-09-13T01:56:15.640Z,21.34
2018-09-13T01:57:15.505Z,21.28
2018-09-13T01:58:15.320Z,21.27
2018-09-13T01:59:15.164Z,21.24
2018-09-13T02:00:15.002Z,21.22
2018-09-13T02:01:14.845Z,21.16
2018-09-13T02:02:14.712Z,21.14
2018-09-13T02:03:14.533Z,21.14
2018-09-13T02:04:14.381Z,21.12
2018-09-13T02:05:14.227Z,21.14
2018-09-13T02:06:14.077Z,21.12
2018-09-13T02:07:13.953Z,21.13
2018-09-13T02:08:13.773Z,21.07
2018-09-13T02:09:13.626Z,21.14
2018-09-13T02:10:13.476Z,21.17
2018-09-13T02:11:13.329Z,21.12
2018-09-13T02:12:13.202Z,21.19
2018-09-13T02:13:13.029Z,21.10
2018-09-13T02:14:12.870Z,21.10
2018-09-13T02:15:12.728Z,21.09
2018-09-13T02:16:12.577Z,21.07
2018-09-13T02:17:12.456Z,20.95
2018-09-13T02:18:12.274Z,20.94
2018-09-13T02:19:12.123Z,20.97
2018-09-13T02:20:11.970Z,20.82
2018-09-13T02:21:11.822Z,20.91
2018-09-13T02:22:11.672Z,20.85
2018-09-13T02:23:11.555Z,20.94
2018-09-13T02:24:11.373Z,20.80
2018-09-13T02:25:11.223Z,20.80
2018-09-13T02:26:11.073Z,20.79
2018-09-13T02:27:10.923Z,20.84
2018-09-13T02:28:10.806Z,20.82
2018-09-13T02:29:10.627Z,20.84
2018-09-13T02:30:10.482Z,20.82
2018-09-13T02:31:10.334Z,20.82
2018-09-13T02:32:10.190Z,20.72
2018-09-13T02:33:10.091Z,20.66
2018-09-13T02:34:09.919Z,20.57
2018-09-13T02:35:09.762Z,20.57
2018-09-13T02:36:09.622Z,20.54
2018-09-13T02:37:09.476Z,20.48
2018-09-13T02:38:09.361Z,20.42
2018-09-13T02:39:09.202Z,20.41
2018-09-13T02:40:09.054Z,20.35
2018-09-13T02:41:08.918Z,20.47
2018-09-13T02:42:08.778Z,20.42
2018-09-13T02:43:08.668Z,20.54
2018-09-13T02:44:08.505Z,20.54
2018-09-13T02:45:08.367Z,20.51
2018-09-13T02:46:08.241Z,20.52
2018-09-13T02:47:08.096Z,20.48
2018-09-13T02:48:07.987Z,20.51
2018-09-13T02:49:07.861Z,20.50
2018-09-13T02:50:07.681Z,20.72
2018-09-13T02:51:07.546Z,20.66
2018-09-13T02:52:07.402Z,20.61
2018-09-13T02:53:07.293Z,20.76
2018-09-13T02:54:07.125Z,20.74
2018-09-13T02:55:06.992Z,20.72
2018-09-13T02:56:06.846Z,20.74
2018-09-13T02:57:06.701Z,20.84
2018-09-13T02:58:06.589Z,20.76
2018-09-13T02:59:06.421Z,20.82
2018-09-13T03:00:06.276Z,20.76
2018-09-13T03:01:06.135Z,20.77
2018-09-13T03:02:05.995Z,20.76
2018-09-13T03:03:05.887Z,20.76
2018-09-13T03:04:05.711Z,20.76
2018-09-13T03:05:05.571Z,20.77
2018-09-13T03:06:05.429Z,20.69
2018-09-13T03:07:05.296Z,20.74
2018-09-13T03:08:05.227Z,20.74
2018-09-13T03:09:05.012Z,20.76
2018-09-13T03:10:04.884Z,20.62
2018-09-13T03:11:04.739Z,20.72
2018-09-13T03:12:04.600Z,20.64
2018-09-13T03:13:04.491Z,20.69
2018-09-13T03:14:04.332Z,20.59
2018-09-13T03:15:04.197Z,20.69
2018-09-13T03:16:04.065Z,20.62
2018-09-13T03:17:03.938Z,20.70
2018-09-13T03:18:03.824Z,20.64
2018-09-13T03:19:03.678Z,20.66
2018-09-13T03:20:03.548Z,20.61
2018-09-13T03:21:03.411Z,20.64
2018-09-13T03:22:03.276Z,20.57
2018-09-13T03:23:03.193Z,20.51
2018-09-13T03:24:03.008Z,20.52
2018-09-13T03:25:02.877Z,20.52
2018-09-13T03:26:02.744Z,20.54
2018-09-13T03:27:02.610Z,20.51
2018-09-13T03:28:02.479Z,20.52
2018-09-13T03:29:02.367Z,20.48
2018-09-13T03:30:02.205Z,20.51
2018-09-13T03:31:02.070Z,20.50
2018-09-13T03:32:01.933Z,20.51
2018-09-13T03:33:01.801Z,20.47
2018-09-13T03:34:01.682Z,20.50
2018-09-13T03:35:01.517Z,20.47
2018-09-13T03:36:01.376Z,20.51
2018-09-13T03:37:01.244Z,20.47
2018-09-13T03:38:01.101Z,20.38
2018-09-13T03:39:00.990Z,20.41
2018-09-13T03:40:00.833Z,20.38
2018-09-13T03:41:00.693Z,20.33
2018-09-13T03:42:00.628Z,20.31
2018-09-13T03:43:00.433Z,20.29
2018-09-13T03:44:00.324Z,20.28
2018-09-13T03:45:00.157Z,20.28
2018-09-13T03:46:00.029Z,20.23
2018-09-13T03:46:59.892Z,20.24
2018-09-13T03:47:59.753Z,20.24
2018-09-13T03:48:59.640Z,20.26
2018-09-13T03:49:59.481Z,20.21
2018-09-13T03:50:59.348Z,20.31
2018-09-13T03:51:59.216Z,20.24
2018-09-13T03:52:59.085Z,20.24
2018-09-13T03:53:58.983Z,20.24
2018-09-13T03:54:58.823Z,20.20
2018-09-13T03:55:58.688Z,20.32
2018-09-13T03:56:58.552Z,20.31
2018-09-13T03:57:58.435Z,20.17
2018-09-13T03:58:58.312Z,20.18
2018-09-13T03:59:58.151Z,20.20
2018-09-13T04:00:58.019Z,20.16
2018-09-13T04:01:57.884Z,20.26
2018-09-13T04:02:57.751Z,20.14
2018-09-13T04:03:57.648Z,20.14
2018-09-13T04:04:57.490Z,20.14
2018-09-13T04:05:57.359Z,20.16
2018-09-13T04:06:57.225Z,20.11
2018-09-13T04:07:57.091Z,20.13
2018-09-13T04:08:56.986Z,20.13
2018-09-13T04:09:56.878Z,20.11
2018-09-13T04:10:56.700Z,20.05
2018-09-13T04:11:56.566Z,20.03
2018-09-13T04:12:56.436Z,20.08
2018-09-13T04:13:56.329Z,19.99
2018-09-13T04:14:56.170Z,20.01
2018-09-13T04:15:56.047Z,20.01
2018-09-13T04:16:55.920Z,20.06
2018-09-13T04:17:55.793Z,19.91
2018-09-13T04:18:55.792Z,19.95
2018-09-13T04:19:55.548Z,19.92
2018-09-13T04:20:55.416Z,19.96
2018-09-13T04:21:55.294Z,19.94
2018-09-13T04:22:55.168Z,19.96
2018-09-13T04:23:55.067Z,19.95
2018-09-13T04:24:54.913Z,19.96
2018-09-13T04:25:54.786Z,19.95
2018-09-13T04:26:54.656Z,19.96
2018-09-13T04:27:54.744Z,19.91
2018-09-13T04:28:54.442Z,19.87
2018-09-13T04:29:54.276Z,19.86
2018-09-13T04:30:54.150Z,19.95
2018-09-13T04:31:54.021Z,19.83
2018-09-13T04:32:53.923Z,19.83
2018-09-13T04:33:53.762Z,19.80
2018-09-13T04:34:53.666Z,19.78
2018-09-13T04:35:53.658Z,19.76
2018-09-13T04:36:53.384Z,19.74
2018-09-13T04:37:53.264Z,19.78
2018-09-13T04:38:53.139Z,19.76
2018-09-13T04:39:53.039Z,19.78
2018-09-13T04:40:52.892Z,19.74
2018-09-13T04:41:52.769Z,19.68
2018-09-13T04:42:52.651Z,19.76
2018-09-13T04:43:52.532Z,19.68
2018-09-13T04:44:52.442Z,19.68
2018-09-13T04:45:52.293Z,19.62
2018-09-13T04:46:52.170Z,19.66
2018-09-13T04:47:52.048Z,19.65
2018-09-13T04:48:51.925Z,19.66
2018-09-13T04:49:51.828Z,19.65
2018-09-13T04:50:51.683Z,19.63
2018-09-13T04:51:51.569Z,19.62
2018-09-13T04:52:51.449Z,19.58
2018-09-13T04:53:51.326Z,19.55
2018-09-13T04:54:51.237Z,19.56
2018-09-13T04:55:51.097Z,19.61
2018-09-13T04:56:50.981Z,19.62
2018-09-13T04:57:50.865Z,19.55
2018-09-13T04:58:50.753Z,19.59
2018-09-13T04:59:50.658Z,19.54
2018-09-13T05:00:50.513Z,19.50
2018-09-13T05:01:50.398Z,19.54
2018-09-13T05:02:50.286Z,19.48
2018-09-13T05:03:50.193Z,19.44
2018-09-13T05:04:50.078Z,19.41
2018-09-13T05:05:49.936Z,19.55
2018-09-13T05:06:49.823Z,19.39
2018-09-13T05:07:49.709Z,19.43
2018-09-13T05:08:49.593Z,19.46
2018-09-13T05:09:49.506Z,19.48
2018-09-13T05:10:49.360Z,19.41
2018-09-13T05:11:49.244Z,19.37
2018-09-13T05:12:49.170Z,19.36
2018-09-13T05:13:49.009Z,19.31
2018-09-13T05:14:48.916Z,19.36
2018-09-13T05:15:48.769Z,19.41
2018-09-13T05:16:48.656Z,19.40
2018-09-13T05:17:48.545Z,19.41
2018-09-13T05:18:48.438Z,19.37
2018-09-13T05:19:48.352Z,19.43
2018-09-13T05:20:48.229Z,19.41
2018-09-13T05:21:48.101Z,19.44
2018-09-13T05:22:47.983Z,19.46
2018-09-13T05:23:47.869Z,19.47
2018-09-13T05:24:47.780Z,19.44
2018-09-13T05:25:47.644Z,19.48
2018-09-13T05:26:48.424Z,19.39
2018-09-13T05:27:47.405Z,19.50
2018-09-13T05:28:47.315Z,19.50
2018-09-13T05:29:47.204Z,19.58
2018-09-13T05:30:47.064Z,19.48
2018-09-13T05:31:47.050Z,19.50
2018-09-13T05:32:46.818Z,19.54
2018-09-13T05:33:46.700Z,19.55
2018-09-13T05:34:46.608Z,19.59
2018-09-13T05:35:46.458Z,19.55
2018-09-13T05:36:46.337Z,19.51
2018-09-13T05:37:46.215Z,19.51
2018-09-13T05:38:46.116Z,19.54
2018-09-13T05:39:46.021Z,19.55
2018-09-13T05:40:45.852Z,19.50
2018-09-13T05:41:45.737Z,19.62
2018-09-13T05:42:45.618Z,19.50
2018-09-13T05:43:45.502Z,19.58
2018-09-13T05:44:45.433Z,19.54
2018-09-13T05:45:45.291Z,19.65
2018-09-13T05:46:45.152Z,19.61
2018-09-13T05:47:45.035Z,19.51
2018-09-13T05:48:44.918Z,19.55
2018-09-13T05:49:44.802Z,19.48
2018-09-13T05:50:44.716Z,19.46
2018-09-13T05:51:44.581Z,19.54
2018-09-13T05:52:44.469Z,19.50
2018-09-13T05:53:44.360Z,19.46
2018-09-13T05:54:44.251Z,19.51
2018-09-13T05:55:44.171Z,19.56
2018-09-13T05:56:44.026Z,19.55
2018-09-13T05:57:43.912Z,19.50
2018-09-13T05:58:43.795Z,19.48
2018-09-13T05:59:43.679Z,19.51
2018-09-13T06:00:43.598Z,19.55
2018-09-13T06:01:43.478Z,19.61
2018-09-13T06:02:43.330Z,19.54
2018-09-13T06:03:43.210Z,19.54
2018-09-13T06:04:43.092Z,19.62
2018-09-13T06:05:43.000Z,19.65
2018-09-13T06:06:42.853Z,19.55
2018-09-13T06:07:42.734Z,19.68
2018-09-13T06:08:42.624Z,19.58
2018-09-13T06:09:42.502Z,19.62
2018-09-13T06:10:42.400Z,19.62
2018-09-13T06:11:42.258Z,19.58
2018-09-13T06:12:42.145Z,19.54
2018-09-13T06:13:42.132Z,19.46
2018-09-13T06:14:41.922Z,19.56
2018-09-13T06:15:41.820Z,19.63
2018-09-13T06:16:41.672Z,19.54
2018-09-13T06:17:41.564Z,19.56
2018-09-13T06:18:41.433Z,19.56
2018-09-13T06:19:41.338Z,19.55
2018-09-13T06:20:41.224Z,19.62
2018-09-13T06:21:41.080Z,19.56
2018-09-13T06:22:40.965Z,19.50
2018-09-13T06:23:40.845Z,19.54
2018-09-13T06:24:40.732Z,19.44
2018-09-13T06:25:40.640Z,19.47
2018-09-13T06:26:40.500Z,19.44
2018-09-13T06:27:40.379Z,19.40
2018-09-13T06:28:40.264Z,19.33
2018-09-13T06:29:40.208Z,19.29
2018-09-13T06:30:40.060Z,19.11
2018-09-13T06:31:39.917Z,19.08
2018-09-13T06:32:39.794Z,19.08
2018-09-13T06:33:39.680Z,19.10
2018-09-13T06:34:39.559Z,19.06
2018-09-13T06:35:39.471Z,19.06
2018-09-13T06:36:39.349Z,19.10
2018-09-13T06:37:39.207Z,19.14
2018-09-13T06:38:39.103Z,19.22
2018-09-13T06:39:38.977Z,19.25
2018-09-13T06:40:38.887Z,19.28
2018-09-13T06:41:38.742Z,19.25
2018-09-13T06:42:38.617Z,19.41
2018-09-13T06:43:38.519Z,19.39
2018-09-13T06:44:38.376Z,19.48
2018-09-13T06:45:38.286Z,19.47
2018-09-13T06:46:38.141Z,19.55
2018-09-13T06:47:38.019Z,19.62
2018-09-13T06:48:37.958Z,19.63
2018-09-13T06:49:37.784Z,19.66
2018-09-13T06:50:37.698Z,19.74
2018-09-13T06:51:37.575Z,19.73
2018-09-13T06:52:37.427Z,19.80
2018-09-13T06:53:37.309Z,19.81
2018-09-13T06:54:37.181Z,19.83
2018-09-13T06:55:37.060Z,19.81
2018-09-13T06:56:36.961Z,19.88
2018-09-13T06:57:36.813Z,19.91
2018-09-13T06:58:36.691Z,19.95
2018-09-13T06:59:36.571Z,19.96
2018-09-13T07:00:36.450Z,19.98
2018-09-13T07:01:36.361Z,19.98
2018-09-13T07:02:36.260Z,19.95
2018-09-13T07:03:36.092Z,20.08
2018-09-13T07:04:35.970Z,20.17
2018-09-13T07:05:35.849Z,20.17
2018-09-13T07:06:35.751Z,20.16
2018-09-13T07:07:35.597Z,20.17
2018-09-13T07:08:35.479Z,20.18
2018-09-13T07:09:35.345Z,20.20
2018-09-13T07:10:35.222Z,20.14
2018-09-13T07:11:35.126Z,20.18
2018-09-13T07:12:34.974Z,20.26
2018-09-13T07:13:34.855Z,20.24
2018-09-13T07:14:34.723Z,20.18
2018-09-13T07:15:34.598Z,20.21
2018-09-13T07:16:34.502Z,20.17
2018-09-13T07:17:34.347Z,20.23
2018-09-13T07:18:34.221Z,20.13
2018-09-13T07:19:34.100Z,20.17
2018-09-13T07:20:33.975Z,20.13
2018-09-13T07:21:33.873Z,20.14
2018-09-13T07:22:33.728Z,20.21
2018-09-13T07:23:33.605Z,20.18
2018-09-13T07:24:33.473Z,20.20
2018-09-13T07:25:33.351Z,20.29
2018-09-13T07:26:33.252Z,20.24
2018-09-13T07:27:33.092Z,20.28
2018-09-13T07:28:32.968Z,20.39
2018-09-13T07:29:32.845Z,20.38
2018-09-13T07:30:32.724Z,20.41
2018-09-13T07:31:32.622Z,20.36
2018-09-13T07:32:32.466Z,20.50
2018-09-13T07:33:32.338Z,20.54
2018-09-13T07:34:32.212Z,20.57
2018-09-13T07:35:32.076Z,20.48
2018-09-13T07:36:31.964Z,20.54
2018-09-13T07:37:31.807Z,20.62
2018-09-13T07:38:31.675Z,20.67
2018-09-13T07:39:31.544Z,20.64
2018-09-13T07:40:31.413Z,20.67
2018-09-13T07:41:31.313Z,20.61
2018-09-13T07:42:31.162Z,20.73
2018-09-13T07:43:31.018Z,20.64
2018-09-13T07:44:30.883Z,20.74
2018-09-13T07:45:30.751Z,20.74
2018-09-13T07:46:30.643Z,20.73
2018-09-13T07:47:30.481Z,20.64
2018-09-13T07:48:30.347Z,20.70
2018-09-13T07:49:30.317Z,20.52
2018-09-13T07:50:30.073Z,20.54
2018-09-13T07:51:29.971Z,20.51
2018-09-13T07:52:29.802Z,20.51
2018-09-13T07:53:29.669Z,20.55
2018-09-13T07:54:29.530Z,20.62
2018-09-13T07:55:29.395Z,20.51
2018-09-13T07:56:29.362Z,20.54
2018-09-13T07:57:29.128Z,20.55
2018-09-13T07:58:28.996Z,20.51
2018-09-13T07:59:28.855Z,20.52
2018-09-13T08:00:28.717Z,20.66
2018-09-13T08:01:28.587Z,20.62
2018-09-13T08:02:28.483Z,20.62
2018-09-13T08:03:28.319Z,20.62
2018-09-13T08:04:28.175Z,20.64
2018-09-13T08:05:28.042Z,20.69
2018-09-13T08:06:27.905Z,20.64
2018-09-13T08:07:27.801Z,20.74
2018-09-13T08:08:27.633Z,20.76
2018-09-13T08:09:27.513Z,20.76
2018-09-13T08:10:27.362Z,20.73
2018-09-13T08:11:27.227Z,20.67
2018-09-13T08:12:27.123Z,20.82
2018-09-13T08:13:26.953Z,20.80
2018-09-13T08:14:26.830Z,20.70
2018-09-13T08:15:26.681Z,20.80
2018-09-13T08:16:26.552Z,20.77
2018-09-13T08:17:26.441Z,20.80
2018-09-13T08:18:26.269Z,20.82
2018-09-13T08:19:26.132Z,20.76
2018-09-13T08:20:25.989Z,20.73
2018-09-13T08:21:25.854Z,20.72
2018-09-13T08:22:25.744Z,20.82
2018-09-13T08:23:25.585Z,20.82
2018-09-13T08:24:25.450Z,20.80
2018-09-13T08:25:25.315Z,20.82
2018-09-13T08:26:25.183Z,20.80
2018-09-13T08:27:25.078Z,20.79
2018-09-13T08:28:24.916Z,20.82
2018-09-13T08:29:24.779Z,20.80
2018-09-13T08:30:24.641Z,20.80
2018-09-13T08:31:24.504Z,20.80
2018-09-13T08:32:24.392Z,20.91
2018-09-13T08:33:24.334Z,20.91
2018-09-13T08:34:24.083Z,20.92
2018-09-13T08:35:23.942Z,20.99
2018-09-13T08:36:23.804Z,21.01
2018-09-13T08:37:23.690Z,21.03
2018-09-13T08:38:23.526Z,21.06
2018-09-13T08:39:23.391Z,21.12
2018-09-13T08:40:23.380Z,21.07
2018-09-13T08:41:23.104Z,21.21
2018-09-13T08:42:22.986Z,21.16
2018-09-13T08:43:22.821Z,21.16
2018-09-13T08:44:22.685Z,21.19
2018-09-13T08:45:22.537Z,21.25
2018-09-13T08:46:22.401Z,21.24
2018-09-13T08:47:22.281Z,21.19
2018-09-13T08:48:22.113Z,21.31
2018-09-13T08:49:21.974Z,21.32
2018-09-13T08:50:21.832Z,21.29
2018-09-13T08:51:21.688Z,21.29
2018-09-13T08:52:21.577Z,21.35
2018-09-13T08:53:21.404Z,21.32
2018-09-13T08:54:21.259Z,21.35
2018-09-13T08:55:21.117Z,21.40
2018-09-13T08:56:20.982Z,21.42
2018-09-13T08:57:20.857Z,21.40
2018-09-13T08:58:20.692Z,21.53
2018-09-13T08:59:20.552Z,21.50
2018-09-13T09:00:20.416Z,21.46
2018-09-13T09:01:20.271Z,21.50
2018-09-13T09:02:20.151Z,21.44
2018-09-13T09:03:19.978Z,21.47
2018-09-13T09:04:19.841Z,21.50
2018-09-13T09:05:19.683Z,21.52
2018-09-13T09:06:19.569Z,21.53
2018-09-13T09:07:19.421Z,21.53
2018-09-13T09:08:19.255Z,21.47
2018-09-13T09:09:19.102Z,21.56
2018-09-13T09:10:18.958Z,21.54
2018-09-13T09:11:18.804Z,21.62
2018-09-13T09:12:18.660Z,21.68
2018-09-13T09:13:18.537Z,21.77
2018-09-13T09:14:18.371Z,21.82
2018-09-13T09:15:18.218Z,21.72
2018-09-13T09:16:18.077Z,21.75
2018-09-13T09:17:17.919Z,21.82
2018-09-13T09:18:17.798Z,21.79
2018-09-13T09:19:17.624Z,21.84
2018-09-13T09:20:17.476Z,21.83
2018-09-13T09:21:17.328Z,21.88
2018-09-13T09:22:17.176Z,21.84
2018-09-13T09:23:17.054Z,21.94
2018-09-13T09:24:16.873Z,21.84
2018-09-13T09:25:16.721Z,21.92
2018-09-13T09:26:16.581Z,21.99
2018-09-13T09:27:16.429Z,21.96
2018-09-13T09:28:16.305Z,21.99
2018-09-13T09:29:16.198Z,21.98
2018-09-13T09:30:15.977Z,21.98
2018-09-13T09:31:15.837Z,21.98
2018-09-13T09:32:15.670Z,22.06
2018-09-13T09:33:15.542Z,22.17
2018-09-13T09:34:15.362Z,22.17
2018-09-13T09:35:15.210Z,22.17
2018-09-13T09:36:15.056Z,22.17
2018-09-13T09:37:14.902Z,22.15
2018-09-13T09:38:14.776Z,22.15
2018-09-13T09:39:14.596Z,22.22
2018-09-13T09:40:14.442Z,22.21
2018-09-13T09:41:14.284Z,22.36
2018-09-13T09:42:14.131Z,22.37
2018-09-13T09:43:13.995Z,22.46
2018-09-13T09:44:13.818Z,22.39
2018-09-13T09:45:13.648Z,22.47
2018-09-13T09:46:13.488Z,22.51
2018-09-13T09:47:13.337Z,22.51
2018-09-13T09:48:13.260Z,22.47
2018-09-13T09:49:12.998Z,22.37
2018-09-13T09:50:12.887Z,22.47
2018-09-13T09:51:12.677Z,22.54
2018-09-13T09:52:12.517Z,22.45
2018-09-13T09:53:12.375Z,22.52
2018-09-13T09:54:12.181Z,22.62
2018-09-13T09:55:12.016Z,22.60
2018-09-13T09:56:11.862Z,22.75
2018-09-13T09:57:11.681Z,22.76
2018-09-13T09:58:11.538Z,22.85
2018-09-13T09:59:11.343Z,22.85
2018-09-13T10:00:11.176Z,22.86
2018-09-13T10:01:11.012Z,22.86
2018-09-13T10:02:10.846Z,23.04
2018-09-13T10:03:10.732Z,23.01
2018-09-13T10:04:10.543Z,23.01
2018-09-13T10:05:10.335Z,23.10
2018-09-13T10:06:10.168Z,23.13
2018-09-13T10:07:09.986Z,23.04
2018-09-13T10:08:09.843Z,23.20
2018-09-13T10:09:09.726Z,23.22
2018-09-13T10:10:09.455Z,23.23
2018-09-13T10:11:09.276Z,23.28
2018-09-13T10:12:09.098Z,23.33
2018-09-13T10:13:08.958Z,23.33
2018-09-13T10:14:08.747Z,23.38
2018-09-13T10:15:08.619Z,23.36
2018-09-13T10:16:08.407Z,23.43
2018-09-13T10:17:08.231Z,23.33
2018-09-13T10:18:08.052Z,23.39
2018-09-13T10:19:07.905Z,23.31
2018-09-13T10:20:07.699Z,23.33
2018-09-13T10:21:07.520Z,23.33
2018-09-13T10:22:07.349Z,23.33
2018-09-13T10:23:07.167Z,23.42
2018-09-13T10:24:07.022Z,23.46
2018-09-13T10:25:06.810Z,23.39
2018-09-13T10:26:06.636Z,23.40
2018-09-13T10:27:06.490Z,23.46
2018-09-13T10:28:06.284Z,23.39
2018-09-13T10:29:06.145Z,23.50
2018-09-13T10:30:05.921Z,23.35
2018-09-13T10:31:05.745Z,23.36
2018-09-13T10:32:05.566Z,23.40
2018-09-13T10:33:05.388Z,23.42
2018-09-13T10:34:05.237Z,23.39
2018-09-13T10:35:05.038Z,23.35
2018-09-13T10:36:04.860Z,23.36
2018-09-13T10:37:04.691Z,23.32
2018-09-13T10:38:04.511Z,23.28
2018-09-13T10:39:04.366Z,23.27
2018-09-13T10:40:04.160Z,23.22
2018-09-13T10:41:03.980Z,23.25
2018-09-13T10:42:03.808Z,23.23
2018-09-13T10:43:03.629Z,23.23
2018-09-13T10:44:03.483Z,23.19
2018-09-13T10:45:03.273Z,23.25
2018-09-13T10:46:03.096Z,23.25
2018-09-13T10:47:02.924Z,23.22
2018-09-13T10:48:02.783Z,23.22
2018-09-13T10:49:02.568Z,23.25
2018-09-13T10:50:02.406Z,23.27
2018-09-13T10:51:02.203Z,23.27
2018-09-13T10:52:02.021Z,23.28
2018-09-13T10:53:01.849Z,23.23
2018-09-13T10:54:01.677Z,23.25
2018-09-13T10:55:01.513Z,23.19
2018-09-13T10:56:01.314Z,23.23
2018-09-13T10:57:01.131Z,23.22
2018-09-13T10:58:00.956Z,23.15
2018-09-13T10:59:00.839Z,23.16
2018-09-13T11:00:00.624Z,23.10
2018-09-13T11:01:00.428Z,23.12
2018-09-13T11:02:00.260Z,23.00
2018-09-13T11:03:00.085Z,23.09
2018-09-13T11:03:59.952Z,23.00
2018-09-13T11:04:59.760Z,22.91
2018-09-13T11:05:59.563Z,22.85
2018-09-13T11:06:59.384Z,22.98
2018-09-13T11:07:59.208Z,22.90
2018-09-13T11:08:59.037Z,22.92
2018-09-13T11:09:58.896Z,22.91
2018-09-13T11:10:58.760Z,22.82
2018-09-13T11:11:58.529Z,22.85
2018-09-13T11:12:58.359Z,22.86
2018-09-13T11:13:58.195Z,22.88
2018-09-13T11:14:58.055Z,22.80
2018-09-13T11:15:57.847Z,22.79
2018-09-13T11:16:57.673Z,22.95
2018-09-13T11:17:57.511Z,22.92
2018-09-13T11:18:57.331Z,22.88
2018-09-13T11:19:57.182Z,22.83
2018-09-13T11:20:56.982Z,22.91
2018-09-13T11:21:56.812Z,22.92
2018-09-13T11:22:56.640Z,22.88
2018-09-13T11:23:56.463Z,22.83
2018-09-13T11:24:56.338Z,22.83
2018-09-13T11:25:56.136Z,22.88
2018-09-13T11:26:55.962Z,22.85
2018-09-13T11:27:55.794Z,22.83
2018-09-13T11:28:55.628Z,22.79
2018-09-13T11:29:55.462Z,22.83
2018-09-13T11:30:55.319Z,22.76
2018-09-13T11:31:55.128Z,22.77
2018-09-13T11:32:54.958Z,22.77
2018-09-13T11:33:54.788Z,22.68
2018-09-13T11:34:54.619Z,22.65
2018-09-13T11:35:54.477Z,22.73
2018-09-13T11:36:54.281Z,22.73
2018-09-13T11:37:54.114Z,22.68
2018-09-13T11:38:53.944Z,22.85
2018-09-13T11:39:53.961Z,22.83
2018-09-13T11:40:53.963Z,22.85
2018-09-13T11:41:53.429Z,22.79
2018-09-13T11:42:53.253Z,22.85
2018-09-13T11:43:53.089Z,22.82
2018-09-13T11:44:52.916Z,22.73
2018-09-13T11:45:52.774Z,22.75
2018-09-13T11:46:52.577Z,22.67
2018-09-13T11:47:52.409Z,22.64
2018-09-13T11:48:52.236Z,22.67
2018-09-13T11:49:52.064Z,22.70
2018-09-13T11:50:51.923Z,22.72
2018-09-13T11:51:51.728Z,22.68
2018-09-13T11:52:51.563Z,22.73
2018-09-13T11:53:51.406Z,22.75
2018-09-13T11:54:51.232Z,22.80
2018-09-13T11:55:51.091Z,22.82
2018-09-13T11:56:50.898Z,22.80
2018-09-13T11:57:50.734Z,22.77
2018-09-13T11:58:50.565Z,22.79
2018-09-13T11:59:50.398Z,22.70
2018-09-13T12:00:50.246Z,22.79
2018-09-13T12:01:50.055Z,22.72
2018-09-13T12:02:49.885Z,22.75
2018-09-13T12:03:49.714Z,22.82
2018-09-13T12:04:49.550Z,22.77
2018-09-13T12:05:49.409Z,22.80
2018-09-13T12:06:49.213Z,22.90
2018-09-13T12:07:49.041Z,22.80
2018-09-13T12:08:48.872Z,22.82
2018-09-13T12:09:48.714Z,22.90
2018-09-13T12:10:48.572Z,22.80
2018-09-13T12:11:48.372Z,22.79
2018-09-13T12:12:48.209Z,22.83
2018-09-13T12:13:48.036Z,22.83
2018-09-13T12:14:47.858Z,22.80
2018-09-13T12:15:47.721Z,22.92
2018-09-13T12:16:47.517Z,22.83
2018-09-13T12:17:47.397Z,22.86
2018-09-13T12:18:47.173Z,22.75
2018-09-13T12:19:47.001Z,22.68
2018-09-13T12:20:46.856Z,22.68
2018-09-13T12:21:46.656Z,22.61
2018-09-13T12:22:46.488Z,22.62
2018-09-13T12:23:46.318Z,22.61
2018-09-13T12:24:46.150Z,22.72
2018-09-13T12:25:46.019Z,22.64
2018-09-13T12:26:45.813Z,22.65
2018-09-13T12:27:45.649Z,22.73
2018-09-13T12:28:45.480Z,22.73
2018-09-13T12:29:45.304Z,22.68
2018-09-13T12:30:45.135Z,22.85
2018-09-13T12:31:44.994Z,22.79
2018-09-13T12:32:44.820Z,22.95
2018-09-13T12:33:44.694Z,22.94
2018-09-13T12:34:44.452Z,22.98
2018-09-13T12:35:44.282Z,23.01
2018-09-13T12:36:44.141Z,23.12
2018-09-13T12:37:43.945Z,23.00
2018-09-13T12:38:43.770Z,23.09
2018-09-13T12:39:43.595Z,23.17
2018-09-13T12:40:43.418Z,23.23
2018-09-13T12:41:43.267Z,23.27
2018-09-13T12:42:43.065Z,23.38
2018-09-13T12:43:42.885Z,23.32
2018-09-13T12:44:42.707Z,23.40
2018-09-13T12:45:42.521Z,23.40
2018-09-13T12:46:42.368Z,23.43
2018-09-13T12:47:42.159Z,23.47
2018-09-13T12:48:41.973Z,23.54
2018-09-13T12:49:41.803Z,23.53
2018-09-13T12:50:41.608Z,23.55